createdAt,value
2023-05-07T00:00:21.690Z,45.89
2023-05-07T00:01:53.496Z,45.99
2023-05-07T00:03:25.222Z,46.17
2023-05-07T00:04:57.347Z,46.17
2023-05-07T00:06:30.077Z,46.07
2023-05-07T00:08:02.216Z,46.29
2023-05-07T00:09:33.944Z,46.19
2023-05-07T00:11:05.817Z,46.30
2023-05-07T00:12:37.358Z,46.21
2023-05-07T00:14:08.856Z,46.07
2023-05-07T00:15:40.481Z,46.22
2023-05-07T00:17:12.258Z,46.37
2023-05-07T00:18:44.434Z,46.29
2023-05-07T00:20:16.698Z,46.34
2023-05-07T00:21:48.584Z,46.27
2023-05-07T00:23:20.260Z,46.29
2023-05-07T00:24:52.081Z,46.51
2023-05-07T00:26:23.666Z,46.57
2023-05-07T00:27:55.544Z,46.59
2023-05-07T00:29:27.181Z,46.53
2023-05-07T00:30:58.881Z,46.54
2023-05-07T00:32:30.513Z,46.80
2023-05-07T00:34:02.521Z,46.77
2023-05-07T00:35:34.108Z,46.61
2023-05-07T00:37:06.774Z,46.45
2023-05-07T00:38:38.498Z,46.20
2023-05-07T00:40:10.984Z,46.17
2023-05-07T00:41:43.128Z,46.29
2023-05-07T00:43:14.991Z,46.17
2023-05-07T00:44:46.843Z,46.43
2023-05-07T00:46:18.695Z,46.29
2023-05-07T00:47:50.370Z,46.53
2023-05-07T00:49:22.183Z,46.98
2023-05-07T00:50:53.926Z,46.79
2023-05-07T00:52:26.170Z,46.79
2023-05-07T00:53:57.729Z,46.82
2023-05-07T00:55:29.635Z,46.62
2023-05-07T00:57:01.647Z,46.86
2023-05-07T00:58:33.639Z,46.84
2023-05-07T01:00:05.687Z,47.19
2023-05-07T01:01:38.060Z,46.90
2023-05-07T01:03:09.745Z,47.01
2023-05-07T01:04:42.019Z,47.10
2023-05-07T01:06:17.693Z,47.17
2023-05-07T01:07:49.956Z,47.10
2023-05-07T01:09:21.718Z,47.19
2023-05-07T01:10:53.524Z,47.57
2023-05-07T01:12:25.059Z,47.31
2023-05-07T01:13:56.655Z,47.60
2023-05-07T01:15:28.381Z,47.75
2023-05-07T01:17:00.555Z,47.44
2023-05-07T01:18:32.280Z,47.22
2023-05-07T01:20:05.969Z,47.86
2023-05-07T01:21:38.299Z,47.68
2023-05-07T01:23:09.854Z,47.89
2023-05-07T01:24:41.495Z,47.79
2023-05-07T01:26:13.150Z,47.60
2023-05-07T01:27:44.805Z,48.12
2023-05-07T01:29:16.594Z,47.67
2023-05-07T01:30:50.507Z,47.79
2023-05-07T01:32:23.220Z,47.60
2023-05-07T01:33:55.037Z,47.74
2023-05-07T01:35:28.679Z,47.72
2023-05-07T01:37:00.357Z,47.84
2023-05-07T01:38:32.049Z,47.85
2023-05-07T01:40:03.962Z,47.72
2023-05-07T01:41:35.659Z,48.25
2023-05-07T01:43:07.236Z,47.85
2023-05-07T01:44:38.982Z,47.92
2023-05-07T01:46:11.530Z,48.29
2023-05-07T01:47:43.291Z,47.97
2023-05-07T01:49:15.487Z,47.82
2023-05-07T01:50:47.387Z,48.56
2023-05-07T01:52:18.971Z,47.99
2023-05-07T01:53:51.915Z,48.09
2023-05-07T01:55:23.767Z,48.38
2023-05-07T01:56:56.923Z,48.46
2023-05-07T01:58:28.401Z,48.05
2023-05-07T02:00:00.996Z,48.28
2023-05-07T02:01:32.701Z,48.14
2023-05-07T02:03:04.823Z,48.36
2023-05-07T02:04:36.552Z,47.99
2023-05-07T02:06:08.174Z,48.70
2023-05-07T02:07:39.708Z,48.67
2023-05-07T02:09:11.792Z,49.00
2023-05-07T02:10:43.673Z,48.42
2023-05-07T02:12:15.286Z,48.72
2023-05-07T02:13:46.839Z,48.36
2023-05-07T02:15:18.619Z,49.14
2023-05-07T02:16:50.979Z,49.17
2023-05-07T02:18:23.145Z,49.00
2023-05-07T02:19:55.560Z,49.01
2023-05-07T02:21:28.391Z,48.80
2023-05-07T02:23:01.691Z,48.56
2023-05-07T02:24:33.328Z,48.85
2023-05-07T02:26:06.140Z,48.40
2023-05-07T02:27:37.833Z,48.91
2023-05-07T02:29:09.799Z,48.50
2023-05-07T02:30:41.744Z,48.98
2023-05-07T02:32:13.896Z,49.01
2023-05-07T02:33:46.503Z,48.65
2023-05-07T02:35:18.409Z,48.79
2023-05-07T02:36:50.641Z,48.94
2023-05-07T02:38:22.130Z,49.16
2023-05-07T02:39:54.724Z,48.88
2023-05-07T02:41:26.227Z,49.50
2023-05-07T02:42:57.867Z,49.54
2023-05-07T02:44:32.612Z,49.17
2023-05-07T02:46:04.959Z,49.38
2023-05-07T02:47:36.618Z,49.49
2023-05-07T02:49:08.252Z,49.45
2023-05-07T02:50:39.803Z,49.99
2023-05-07T02:52:11.354Z,49.56
2023-05-07T02:53:42.862Z,49.75
2023-05-07T02:55:14.586Z,49.45
2023-05-07T02:56:46.124Z,49.87
2023-05-07T02:58:17.748Z,49.55
2023-05-07T02:59:49.233Z,49.92
2023-05-07T03:01:22.130Z,49.88
2023-05-07T03:02:53.861Z,49.95
2023-05-07T03:04:25.473Z,49.68
2023-05-07T03:05:57.535Z,49.85
2023-05-07T03:07:29.166Z,49.48
2023-05-07T03:09:01.134Z,49.90
2023-05-07T03:10:32.760Z,49.52
2023-05-07T03:12:04.387Z,49.92
2023-05-07T03:13:36.034Z,50.25
2023-05-07T03:15:07.982Z,50.29
2023-05-07T03:16:39.619Z,50.39
2023-05-07T03:18:11.775Z,50.27
2023-05-07T03:19:43.465Z,50.36
2023-05-07T03:21:15.122Z,50.33
2023-05-07T03:22:46.843Z,50.00
2023-05-07T03:24:18.400Z,49.98
2023-05-07T03:25:50.838Z,50.53
2023-05-07T03:27:22.518Z,49.93
2023-05-07T03:28:54.112Z,50.26
2023-05-07T03:30:25.826Z,49.94
2023-05-07T03:31:58.934Z,50.01
2023-05-07T03:33:31.099Z,49.57
2023-05-07T03:35:03.490Z,50.38
2023-05-07T03:36:35.035Z,50.42
2023-05-07T03:38:06.543Z,50.90
2023-05-07T03:39:38.063Z,50.46
2023-05-07T03:41:10.376Z,50.63
2023-05-07T03:42:42.483Z,50.53
2023-05-07T03:44:14.019Z,50.54
2023-05-07T03:45:45.616Z,50.31
2023-05-07T03:47:17.230Z,50.44
2023-05-07T03:48:48.888Z,50.81
2023-05-07T03:50:21.307Z,50.63
2023-05-07T03:51:52.895Z,49.92
2023-05-07T03:53:24.463Z,50.30
2023-05-07T03:54:56.130Z,50.52
2023-05-07T03:56:28.860Z,50.84
2023-05-07T03:58:01.302Z,50.86
2023-05-07T03:59:33.026Z,50.74
2023-05-07T04:01:04.869Z,50.69
2023-05-07T04:02:36.559Z,50.95
2023-05-07T04:04:08.373Z,50.96
2023-05-07T04:05:40.171Z,51.65
2023-05-07T04:07:11.687Z,51.22
2023-05-07T04:08:44.012Z,51.51
2023-05-07T04:10:15.747Z,51.52
2023-05-07T04:11:47.351Z,51.58
2023-05-07T04:13:19.008Z,51.05
2023-05-07T04:14:50.975Z,51.20
2023-05-07T04:16:22.701Z,51.32
2023-05-07T04:17:54.419Z,51.55
2023-05-07T04:19:26.366Z,51.43
2023-05-07T04:20:58.278Z,51.15
2023-05-07T04:22:30.115Z,51.49
2023-05-07T04:24:01.792Z,50.75
2023-05-07T04:25:33.399Z,50.99
2023-05-07T04:27:05.643Z,50.50
2023-05-07T04:28:37.523Z,50.81
2023-05-07T04:30:09.418Z,51.04
2023-05-07T04:31:41.422Z,50.80
2023-05-07T04:33:14.319Z,51.22
2023-05-07T04:34:46.183Z,50.83
2023-05-07T04:36:17.832Z,51.16
2023-05-07T04:37:49.630Z,50.96
2023-05-07T04:39:21.848Z,50.62
2023-05-07T04:40:54.154Z,51.19
2023-05-07T04:42:26.148Z,50.83
2023-05-07T04:44:00.174Z,51.25
2023-05-07T04:45:32.107Z,51.21
2023-05-07T04:47:03.720Z,50.96
2023-05-07T04:48:35.247Z,50.93
2023-05-07T04:50:07.813Z,50.97
2023-05-07T04:51:39.766Z,50.73
2023-05-07T04:53:11.393Z,50.76
2023-05-07T04:54:43.074Z,50.74
2023-05-07T04:56:14.634Z,50.86
2023-05-07T04:57:46.390Z,50.97
2023-05-07T04:59:17.921Z,51.02
2023-05-07T05:00:49.469Z,50.98
2023-05-07T05:02:21.243Z,51.01
2023-05-07T05:03:53.539Z,50.92
2023-05-07T05:05:25.069Z,50.99
2023-05-07T05:06:57.261Z,50.98
2023-05-07T05:08:29.254Z,51.03
2023-05-07T05:10:00.812Z,50.95
2023-05-07T05:11:32.798Z,50.98
2023-05-07T05:13:04.380Z,51.02
2023-05-07T05:14:36.085Z,50.83
2023-05-07T05:16:07.935Z,50.67
2023-05-07T05:17:39.749Z,50.78
2023-05-07T05:19:11.493Z,50.81
2023-05-07T05:20:43.639Z,50.49
2023-05-07T05:22:15.206Z,50.50
2023-05-07T05:23:47.023Z,50.89
2023-05-07T05:25:18.627Z,50.85
2023-05-07T05:26:50.524Z,50.80
2023-05-07T05:28:22.780Z,50.67
2023-05-07T05:29:54.501Z,50.96
2023-05-07T05:31:26.164Z,50.50
2023-05-07T05:32:58.089Z,50.68
2023-05-07T05:34:30.966Z,50.92
2023-05-07T05:36:03.216Z,50.93
2023-05-07T05:37:34.852Z,50.62
2023-05-07T05:39:07.125Z,50.52
2023-05-07T05:40:38.778Z,50.47
2023-05-07T05:42:10.379Z,50.74
2023-05-07T05:43:42.108Z,50.81
2023-05-07T05:45:13.801Z,50.88
2023-05-07T05:46:45.850Z,50.45
2023-05-07T05:48:17.565Z,50.34
2023-05-07T05:49:49.260Z,50.63
2023-05-07T05:51:22.062Z,50.07
2023-05-07T05:52:53.657Z,49.98
2023-05-07T05:54:25.343Z,50.55
2023-05-07T05:55:56.881Z,50.51
2023-05-07T05:57:28.968Z,50.52
2023-05-07T05:59:00.787Z,50.27
2023-05-07T06:00:33.072Z,49.92
2023-05-07T06:02:04.709Z,50.27
2023-05-07T06:03:36.779Z,50.26
2023-05-07T06:05:09.013Z,50.04
2023-05-07T06:06:41.104Z,49.83
2023-05-07T06:08:12.627Z,49.78
2023-05-07T06:09:44.255Z,49.70
2023-05-07T06:11:15.851Z,49.85
2023-05-07T06:12:47.526Z,49.56
2023-05-07T06:14:19.155Z,49.70
2023-05-07T06:15:51.432Z,49.67
2023-05-07T06:17:23.358Z,49.81
2023-05-07T06:18:56.844Z,49.90
2023-05-07T06:20:29.025Z,49.80
2023-05-07T06:22:02.485Z,49.59
2023-05-07T06:23:34.092Z,49.70
2023-05-07T06:25:06.706Z,49.38
2023-05-07T06:26:38.810Z,49.01
2023-05-07T06:28:12.562Z,49.00
2023-05-07T06:29:44.700Z,48.92
2023-05-07T06:31:17.445Z,48.96
2023-05-07T06:32:49.477Z,49.23
2023-05-07T06:34:21.216Z,49.28
2023-05-07T06:35:53.429Z,49.07
2023-05-07T06:37:25.060Z,49.17
2023-05-07T06:38:56.843Z,48.95
2023-05-07T06:40:29.083Z,48.85
2023-05-07T06:42:01.662Z,48.52
2023-05-07T06:43:33.723Z,48.45
2023-05-07T06:45:05.558Z,48.62
2023-05-07T06:46:37.381Z,48.47
2023-05-07T06:48:09.139Z,48.44
2023-05-07T06:49:40.886Z,48.19
2023-05-07T06:51:12.587Z,48.03
2023-05-07T06:52:44.341Z,48.10
2023-05-07T06:54:16.258Z,48.09
2023-05-07T06:55:48.086Z,48.13
2023-05-07T06:57:19.790Z,48.13
2023-05-07T06:58:51.421Z,47.86
2023-05-07T07:00:23.188Z,47.79
2023-05-07T07:01:54.816Z,47.82
2023-05-07T07:03:26.649Z,47.61
2023-05-07T07:04:58.638Z,47.39
2023-05-07T07:06:32.913Z,47.37
2023-05-07T07:08:05.143Z,47.04
2023-05-07T07:09:36.832Z,47.04
2023-05-07T07:11:09.563Z,47.09
2023-05-07T07:12:41.827Z,46.85
2023-05-07T07:14:14.782Z,46.88
2023-05-07T07:15:46.826Z,46.73
2023-05-07T07:17:18.488Z,46.61
2023-05-07T07:18:50.664Z,46.70
2023-05-07T07:20:22.743Z,46.54
2023-05-07T07:21:54.277Z,46.41
2023-05-07T07:23:26.633Z,46.25
2023-05-07T07:24:58.171Z,45.92
2023-05-07T07:26:30.588Z,46.02
2023-05-07T07:28:02.386Z,45.87
2023-05-07T07:29:34.072Z,46.02
2023-05-07T07:31:05.884Z,46.10
2023-05-07T07:32:37.882Z,45.83
2023-05-07T07:34:09.637Z,45.51
2023-05-07T07:35:41.455Z,45.21
2023-05-07T07:37:13.263Z,44.92
2023-05-07T07:38:45.081Z,44.72
2023-05-07T07:40:16.695Z,44.54
2023-05-07T07:41:48.366Z,44.63
2023-05-07T07:43:20.107Z,44.49
2023-05-07T07:44:51.823Z,44.22
2023-05-07T07:46:23.643Z,44.15
2023-05-07T07:47:55.432Z,44.04
2023-05-07T07:49:27.521Z,43.97
2023-05-07T07:50:59.365Z,43.64
2023-05-07T07:52:31.073Z,43.51
2023-05-07T07:54:04.184Z,43.42
2023-05-07T07:55:39.960Z,43.14
2023-05-07T07:57:11.560Z,43.31
2023-05-07T07:58:43.339Z,43.42
2023-05-07T08:00:15.273Z,43.23
2023-05-07T08:01:47.065Z,43.09
2023-05-07T08:03:18.983Z,43.19
2023-05-07T08:04:51.065Z,42.95
2023-05-07T08:06:23.365Z,42.97
2023-05-07T08:07:55.671Z,42.87
2023-05-07T08:09:27.486Z,42.85
2023-05-07T08:10:59.112Z,42.92
2023-05-07T08:12:30.819Z,42.78
2023-05-07T08:14:02.498Z,42.42
2023-05-07T08:15:34.546Z,42.20
2023-05-07T08:17:06.156Z,42.07
2023-05-07T08:18:37.816Z,41.56
2023-05-07T08:20:10.360Z,41.60
2023-05-07T08:21:42.281Z,40.95
2023-05-07T08:23:13.982Z,41.02
2023-05-07T08:24:46.090Z,41.05
2023-05-07T08:26:17.774Z,41.25
2023-05-07T08:27:49.370Z,40.85
2023-05-07T08:29:21.140Z,41.00
2023-05-07T08:30:53.092Z,40.73
2023-05-07T08:32:25.126Z,40.74
2023-05-07T08:33:57.652Z,40.71
2023-05-07T08:35:29.673Z,40.60
2023-05-07T08:37:01.841Z,40.66
2023-05-07T08:38:33.692Z,40.87
2023-05-07T08:40:06.718Z,40.92
2023-05-07T08:41:41.793Z,40.63
2023-05-07T08:43:16.185Z,40.24
2023-05-07T08:44:50.695Z,40.33
2023-05-07T08:46:22.787Z,39.89
2023-05-07T08:47:57.442Z,39.94
2023-05-07T08:49:29.646Z,39.73
2023-05-07T08:51:01.984Z,39.32
2023-05-07T08:52:33.582Z,39.30
2023-05-07T08:54:06.020Z,39.09
2023-05-07T08:55:37.583Z,39.34
2023-05-07T08:57:09.468Z,39.33
2023-05-07T08:58:41.439Z,38.82
2023-05-07T09:00:13.415Z,38.96
2023-05-07T09:01:45.734Z,38.85
2023-05-07T09:03:17.851Z,39.00
2023-05-07T09:04:51.711Z,38.88
2023-05-07T09:06:24.042Z,39.04
2023-05-07T09:07:58.368Z,38.44
2023-05-07T09:09:30.414Z,38.33
2023-05-07T09:11:02.339Z,38.33
2023-05-07T09:12:36.295Z,38.24
2023-05-07T09:14:09.535Z,38.07
2023-05-07T09:15:41.601Z,37.99
2023-05-07T09:17:13.496Z,38.00
2023-05-07T09:18:46.117Z,38.02
2023-05-07T09:20:17.852Z,38.14
2023-05-07T09:21:49.516Z,37.79
2023-05-07T09:23:21.703Z,38.05
2023-05-07T09:24:53.422Z,37.94
2023-05-07T09:26:25.795Z,38.30
2023-05-07T09:27:57.683Z,38.14
2023-05-07T09:29:36.249Z,38.14
2023-05-07T09:31:08.697Z,37.91
2023-05-07T09:32:40.434Z,37.96
2023-05-07T09:34:12.121Z,37.50
2023-05-07T09:35:43.905Z,37.83
2023-05-07T09:37:15.809Z,37.43
2023-05-07T09:38:47.445Z,37.24
2023-05-07T09:40:26.714Z,37.21
2023-05-07T09:42:00.167Z,37.43
2023-05-07T09:43:35.840Z,37.05
2023-05-07T09:45:07.702Z,36.97
2023-05-07T09:46:40.449Z,37.05
2023-05-07T09:48:12.163Z,36.77
2023-05-07T09:49:43.914Z,36.94
2023-05-07T09:51:32.534Z,36.35
2023-05-07T09:53:04.685Z,36.24
2023-05-07T09:54:39.021Z,36.29
2023-05-07T09:56:10.666Z,36.37
2023-05-07T09:57:42.312Z,36.25
2023-05-07T09:59:15.177Z,35.76
2023-05-07T10:00:46.801Z,35.76
2023-05-07T10:02:18.457Z,35.49
2023-05-07T10:03:51.361Z,35.47
2023-05-07T10:05:23.961Z,35.30
2023-05-07T10:06:56.488Z,35.32
2023-05-07T10:08:28.487Z,35.00
2023-05-07T10:10:06.427Z,35.02
2023-05-07T10:11:38.250Z,35.07
2023-05-07T10:13:12.109Z,35.06
2023-05-07T10:14:43.809Z,34.87
2023-05-07T10:16:15.732Z,34.74
2023-05-07T10:17:47.415Z,34.66
2023-05-07T10:19:19.674Z,34.60
2023-05-07T10:20:51.426Z,34.48
2023-05-07T10:22:23.602Z,34.58
2023-05-07T10:23:59.691Z,34.54
2023-05-07T10:25:32.316Z,34.88
2023-05-07T10:27:05.486Z,34.24
2023-05-07T10:28:40.288Z,34.08
2023-05-07T10:30:11.891Z,34.29
2023-05-07T10:31:57.559Z,34.01
2023-05-07T10:33:30.603Z,33.74
2023-05-07T10:35:04.396Z,33.59
2023-05-07T10:36:38.394Z,33.36
2023-05-07T10:38:10.305Z,33.35
2023-05-07T10:39:41.917Z,33.14
2023-05-07T10:41:13.537Z,33.47
2023-05-07T10:42:55.103Z,33.21
2023-05-07T10:44:30.255Z,33.26
2023-05-07T10:46:20.666Z,33.44
2023-05-07T10:48:27.952Z,32.96
2023-05-07T10:50:06.994Z,32.48
2023-05-07T10:51:38.868Z,32.57
2023-05-07T10:53:19.651Z,32.72
2023-05-07T10:55:11.702Z,32.76
2023-05-07T10:56:48.757Z,32.75
2023-05-07T10:58:31.391Z,32.22
2023-05-07T11:00:35.541Z,32.12
2023-05-07T11:02:12.495Z,31.92
2023-05-07T11:04:02.914Z,32.00
2023-05-07T11:05:37.516Z,31.69
2023-05-07T11:07:10.347Z,31.76
2023-05-07T11:08:54.097Z,31.58
2023-05-07T11:10:46.190Z,31.43
2023-05-07T11:12:18.372Z,31.52
2023-05-07T11:13:50.655Z,31.21
2023-05-07T11:15:35.585Z,31.04
2023-05-07T11:17:07.402Z,31.03
2023-05-07T11:18:49.384Z,30.97
2023-05-07T11:20:21.735Z,31.24
2023-05-07T11:21:55.363Z,30.91
2023-05-07T11:23:36.403Z,30.72
2023-05-07T11:25:08.149Z,30.75
2023-05-07T11:26:51.728Z,30.45
2023-05-07T11:28:23.335Z,30.50
2023-05-07T11:29:55.287Z,30.22
2023-05-07T11:31:28.454Z,30.22
2023-05-07T11:33:00.490Z,30.45
2023-05-07T11:34:32.945Z,30.43
2023-05-07T11:36:04.934Z,30.25
2023-05-07T11:37:36.579Z,30.61
2023-05-07T11:39:14.196Z,30.43
2023-05-07T11:40:55.136Z,30.51
2023-05-07T11:42:28.685Z,30.49
2023-05-07T11:44:01.044Z,30.13
2023-05-07T11:45:32.829Z,30.22
2023-05-07T11:47:04.916Z,30.15
2023-05-07T11:48:36.939Z,30.43
2023-05-07T11:50:09.369Z,30.20
2023-05-07T11:51:43.280Z,29.96
2023-05-07T11:53:15.191Z,29.75
2023-05-07T11:54:53.186Z,29.85
2023-05-07T11:56:24.933Z,30.34
2023-05-07T11:57:56.696Z,29.96
2023-05-07T11:59:28.636Z,29.79
2023-05-07T12:01:00.489Z,29.50
2023-05-07T12:02:32.798Z,29.53
2023-05-07T12:04:05.085Z,29.61
2023-05-07T12:05:38.496Z,29.44
2023-05-07T12:07:16.302Z,29.84
2023-05-07T12:08:48.497Z,29.81
2023-05-07T12:10:20.967Z,29.36
2023-05-07T12:11:52.911Z,29.28
2023-05-07T12:13:25.495Z,29.23
2023-05-07T12:14:57.131Z,29.42
2023-05-07T12:16:29.151Z,29.03
2023-05-07T12:18:01.067Z,28.91
2023-05-07T12:19:33.367Z,28.91
2023-05-07T12:21:05.546Z,29.35
2023-05-07T12:22:38.033Z,29.18
2023-05-07T12:24:09.833Z,29.33
2023-05-07T12:25:44.373Z,28.96
2023-05-07T12:27:16.377Z,28.97
2023-05-07T12:28:48.369Z,29.05
2023-05-07T12:30:19.908Z,28.92
2023-05-07T12:31:51.769Z,28.95
2023-05-07T12:33:26.400Z,28.84
2023-05-07T12:34:58.236Z,28.98
2023-05-07T12:36:37.460Z,28.80
2023-05-07T12:38:13.035Z,28.50
2023-05-07T12:39:51.573Z,28.56
2023-05-07T12:41:27.772Z,29.21
2023-05-07T12:43:00.854Z,29.03
2023-05-07T12:44:33.262Z,28.74
2023-05-07T12:46:08.312Z,29.08
2023-05-07T12:47:40.954Z,28.71
2023-05-07T12:49:12.645Z,28.95
2023-05-07T12:50:46.692Z,28.62
2023-05-07T12:52:18.338Z,28.45
2023-05-07T12:53:50.014Z,28.34
2023-05-07T12:55:21.989Z,28.48
2023-05-07T12:57:01.353Z,28.29
2023-05-07T12:58:34.342Z,28.31
2023-05-07T13:00:07.056Z,28.36
2023-05-07T13:01:38.875Z,28.35
2023-05-07T13:03:10.990Z,28.24
2023-05-07T13:04:43.109Z,28.39
2023-05-07T13:06:14.760Z,28.11
2023-05-07T13:07:58.885Z,28.46
2023-05-07T13:09:30.482Z,27.89
2023-05-07T13:11:04.803Z,28.16
2023-05-07T13:12:37.225Z,27.94
2023-05-07T13:14:09.370Z,27.97
2023-05-07T13:15:41.064Z,27.61
2023-05-07T13:17:12.761Z,27.63
2023-05-07T13:18:47.064Z,27.62
2023-05-07T13:20:18.834Z,27.54
2023-05-07T13:21:51.625Z,27.64
2023-05-07T13:23:23.830Z,27.43
2023-05-07T13:24:55.749Z,27.38
2023-05-07T13:26:27.661Z,27.72
2023-05-07T13:28:09.531Z,27.28
2023-05-07T13:29:42.188Z,27.57
2023-05-07T13:31:13.952Z,27.18
2023-05-07T13:32:46.733Z,27.12
2023-05-07T13:34:18.349Z,27.18
2023-05-07T13:35:49.975Z,26.88
2023-05-07T13:37:21.945Z,27.11
2023-05-07T13:38:53.668Z,26.61
2023-05-07T13:40:25.444Z,26.71
2023-05-07T13:41:57.166Z,26.67
2023-05-07T13:43:28.737Z,27.14
2023-05-07T13:45:00.401Z,26.74
2023-05-07T13:46:32.693Z,27.33
2023-05-07T13:48:04.579Z,26.98
2023-05-07T13:49:36.323Z,26.98
2023-05-07T13:51:08.005Z,27.03
2023-05-07T13:52:41.870Z,27.03
2023-05-07T13:54:13.694Z,27.07
2023-05-07T13:55:46.214Z,26.85
2023-05-07T13:57:17.979Z,27.18
2023-05-07T13:58:59.310Z,27.29
2023-05-07T14:00:31.427Z,26.89
2023-05-07T14:02:03.008Z,27.17
2023-05-07T14:03:35.200Z,27.21
2023-05-07T14:05:07.167Z,27.35
2023-05-07T14:06:38.718Z,26.94
2023-05-07T14:08:10.489Z,26.77
2023-05-07T14:09:42.050Z,26.83
2023-05-07T14:11:13.620Z,27.11
2023-05-07T14:12:46.024Z,27.03
2023-05-07T14:14:17.981Z,26.80
2023-05-07T14:15:50.366Z,26.99
2023-05-07T14:17:24.446Z,26.55
2023-05-07T14:18:57.933Z,27.23
2023-05-07T14:20:31.634Z,27.24
2023-05-07T14:22:03.808Z,26.80
2023-05-07T14:23:35.403Z,26.71
2023-05-07T14:25:07.561Z,27.09
2023-05-07T14:26:39.410Z,26.68
2023-05-07T14:28:11.217Z,26.53
2023-05-07T14:29:43.801Z,26.54
2023-05-07T14:31:15.648Z,26.54
2023-05-07T14:32:47.314Z,26.82
2023-05-07T14:34:18.862Z,26.75
2023-05-07T14:35:51.293Z,26.84
2023-05-07T14:37:22.992Z,26.67
2023-05-07T14:38:57.992Z,26.67
2023-05-07T14:40:29.631Z,27.02
2023-05-07T14:42:01.596Z,26.97
2023-05-07T14:43:33.847Z,26.96
2023-05-07T14:45:05.869Z,26.43
2023-05-07T14:46:37.685Z,26.98
2023-05-07T14:48:10.582Z,26.58
2023-05-07T14:49:43.076Z,26.95
2023-05-07T14:51:14.917Z,26.58
2023-05-07T14:52:46.613Z,26.61
2023-05-07T14:54:18.480Z,26.51
2023-05-07T14:55:50.573Z,26.47
2023-05-07T14:57:22.824Z,26.48
2023-05-07T14:58:54.663Z,26.88
2023-05-07T15:00:26.780Z,26.80
2023-05-07T15:01:59.237Z,26.52
2023-05-07T15:03:31.617Z,26.79
2023-05-07T15:05:03.659Z,26.53
2023-05-07T15:06:35.467Z,26.94
2023-05-07T15:08:07.171Z,27.05
2023-05-07T15:09:39.163Z,26.97
2023-05-07T15:11:11.172Z,27.03
2023-05-07T15:12:42.804Z,27.01
2023-05-07T15:14:14.425Z,27.10
2023-05-07T15:15:47.162Z,27.06
2023-05-07T15:17:18.732Z,26.96
2023-05-07T15:18:50.401Z,27.26
2023-05-07T15:20:22.135Z,27.10
2023-05-07T15:21:53.846Z,27.22
2023-05-07T15:23:25.637Z,26.99
2023-05-07T15:24:58.134Z,27.10
2023-05-07T15:26:30.347Z,27.16
2023-05-07T15:28:02.055Z,27.07
2023-05-07T15:29:33.663Z,27.15
2023-05-07T15:31:06.509Z,27.09
2023-05-07T15:32:39.447Z,27.12
2023-05-07T15:34:11.228Z,27.15
2023-05-07T15:35:43.077Z,27.21
2023-05-07T15:37:14.781Z,27.15
2023-05-07T15:38:46.407Z,27.38
2023-05-07T15:40:18.193Z,27.25
2023-05-07T15:41:50.024Z,27.36
2023-05-07T15:43:21.880Z,27.15
2023-05-07T15:44:53.427Z,27.17
2023-05-07T15:46:25.718Z,27.12
2023-05-07T15:47:57.357Z,26.98
2023-05-07T15:49:29.284Z,27.04
2023-05-07T15:51:00.952Z,27.30
2023-05-07T15:52:32.709Z,26.96
2023-05-07T15:54:04.665Z,27.01
2023-05-07T15:55:37.001Z,27.38
2023-05-07T15:57:09.780Z,27.41
2023-05-07T15:58:41.392Z,27.29
2023-05-07T16:00:14.308Z,27.00
2023-05-07T16:01:46.258Z,27.27
2023-05-07T16:03:19.100Z,27.35
2023-05-07T16:04:50.877Z,27.22
2023-05-07T16:06:23.052Z,27.29
2023-05-07T16:07:54.823Z,27.05
2023-05-07T16:09:27.584Z,27.28
2023-05-07T16:10:59.218Z,27.17
2023-05-07T16:12:30.783Z,27.11
2023-05-07T16:14:02.426Z,27.23
2023-05-07T16:15:34.136Z,27.27
2023-05-07T16:17:05.711Z,27.23
2023-05-07T16:18:37.368Z,27.32
2023-05-07T16:20:09.503Z,27.36
2023-05-07T16:21:41.054Z,27.25
2023-05-07T16:23:13.381Z,27.15
2023-05-07T16:24:45.076Z,27.44
2023-05-07T16:26:17.486Z,27.58
2023-05-07T16:27:49.145Z,27.76
2023-05-07T16:29:22.417Z,27.62
2023-05-07T16:30:54.084Z,27.63
2023-05-07T16:32:25.769Z,27.79
2023-05-07T16:33:57.653Z,27.83
2023-05-07T16:35:29.214Z,27.79
2023-05-07T16:37:00.800Z,27.50
2023-05-07T16:38:34.759Z,27.66
2023-05-07T16:40:07.728Z,27.77
2023-05-07T16:41:39.439Z,27.68
2023-05-07T16:43:11.700Z,27.76
2023-05-07T16:44:43.286Z,27.67
2023-05-07T16:46:14.961Z,27.84
2023-05-07T16:47:46.588Z,27.58
2023-05-07T16:49:18.234Z,27.74
2023-05-07T16:50:49.949Z,27.82
2023-05-07T16:52:21.617Z,27.83
2023-05-07T16:53:53.629Z,27.65
2023-05-07T16:55:25.211Z,27.93
2023-05-07T16:56:57.755Z,28.05
2023-05-07T16:58:29.418Z,28.12
2023-05-07T17:00:01.062Z,28.16
2023-05-07T17:01:33.248Z,28.10
2023-05-07T17:03:05.089Z,28.19
2023-05-07T17:04:36.788Z,28.21
2023-05-07T17:06:15.386Z,28.38
2023-05-07T17:07:47.264Z,28.81
2023-05-07T17:09:19.227Z,28.45
2023-05-07T17:10:51.330Z,28.69
2023-05-07T17:12:23.470Z,28.77
2023-05-07T17:13:55.098Z,28.85
2023-05-07T17:15:26.825Z,28.60
2023-05-07T17:16:58.437Z,28.66
2023-05-07T17:18:30.092Z,28.83
2023-05-07T17:20:01.603Z,29.32
2023-05-07T17:21:33.225Z,29.40
2023-05-07T17:23:04.974Z,29.30
2023-05-07T17:24:36.672Z,29.27
2023-05-07T17:26:14.629Z,29.32
2023-05-07T17:27:46.308Z,29.17
2023-05-07T17:29:19.324Z,29.07
2023-05-07T17:30:50.930Z,29.55
2023-05-07T17:32:22.568Z,29.59
2023-05-07T17:33:54.387Z,29.96
2023-05-07T17:35:27.539Z,30.15
2023-05-07T17:36:59.080Z,30.29
2023-05-07T17:38:31.328Z,30.19
2023-05-07T17:40:03.284Z,30.70
2023-05-07T17:41:36.334Z,30.77
2023-05-07T17:43:08.148Z,30.76
2023-05-07T17:44:40.090Z,30.91
2023-05-07T17:46:11.730Z,30.94
2023-05-07T17:47:43.422Z,31.10
2023-05-07T17:49:15.542Z,31.20
2023-05-07T17:50:47.301Z,31.29
2023-05-07T17:52:18.866Z,31.34
2023-05-07T17:53:50.396Z,31.38
2023-05-07T17:55:22.014Z,31.47
2023-05-07T17:56:53.533Z,31.54
2023-05-07T17:58:27.154Z,31.62
2023-05-07T17:59:59.629Z,31.63
2023-05-07T18:01:33.564Z,31.68
2023-05-07T18:03:05.251Z,31.84
2023-05-07T18:04:37.456Z,31.85
2023-05-07T18:06:10.156Z,32.00
2023-05-07T18:07:42.491Z,32.00
2023-05-07T18:09:14.524Z,32.12
2023-05-07T18:10:46.509Z,32.24
2023-05-07T18:12:18.125Z,32.35
2023-05-07T18:13:50.411Z,32.54
2023-05-07T18:15:22.259Z,32.62
2023-05-07T18:16:54.449Z,32.70
2023-05-07T18:18:29.115Z,32.75
2023-05-07T18:20:00.910Z,32.78
2023-05-07T18:21:32.643Z,33.00
2023-05-07T18:23:05.077Z,32.96
2023-05-07T18:24:36.734Z,32.94
2023-05-07T18:26:08.555Z,33.08
2023-05-07T18:27:41.041Z,33.15
2023-05-07T18:29:13.078Z,33.37
2023-05-07T18:30:44.745Z,33.19
2023-05-07T18:32:16.765Z,33.27
2023-05-07T18:33:50.976Z,33.39
2023-05-07T18:35:22.964Z,33.38
2023-05-07T18:36:54.807Z,33.62
2023-05-07T18:38:26.813Z,33.60
2023-05-07T18:40:02.024Z,33.56
2023-05-07T18:41:33.929Z,33.69
2023-05-07T18:43:07.240Z,33.88
2023-05-07T18:44:40.375Z,34.03
2023-05-07T18:46:11.952Z,34.11
2023-05-07T18:47:44.126Z,34.08
2023-05-07T18:49:16.297Z,34.00
2023-05-07T18:50:48.386Z,34.28
2023-05-07T18:52:22.453Z,34.24
2023-05-07T18:53:54.686Z,34.34
2023-05-07T18:55:26.975Z,34.36
2023-05-07T18:57:01.711Z,34.45
2023-05-07T18:58:34.700Z,34.43
2023-05-07T19:00:07.608Z,34.52
2023-05-07T19:01:40.003Z,34.58
2023-05-07T19:03:12.229Z,34.54
2023-05-07T19:04:44.130Z,34.59
2023-05-07T19:06:15.784Z,34.68
2023-05-07T19:07:48.033Z,34.75
2023-05-07T19:09:20.009Z,34.79
2023-05-07T19:10:52.169Z,34.78
2023-05-07T19:12:23.974Z,34.75
2023-05-07T19:13:55.855Z,34.86
2023-05-07T19:15:27.762Z,35.03
2023-05-07T19:16:59.797Z,34.90
2023-05-07T19:18:33.005Z,34.82
2023-05-07T19:21:38.923Z,35.07
2023-05-07T19:23:11.812Z,35.03
2023-05-07T19:24:43.868Z,35.22
2023-05-07T19:26:15.837Z,35.24
2023-05-07T19:27:48.528Z,35.19
2023-05-07T19:29:20.177Z,35.14
2023-05-07T19:30:53.011Z,35.34
2023-05-07T19:32:25.004Z,35.28
2023-05-07T19:33:58.307Z,35.32
2023-05-07T19:35:32.045Z,35.36
2023-05-07T19:37:04.503Z,35.65
2023-05-07T19:38:36.501Z,35.52
2023-05-07T19:40:09.974Z,35.48
2023-05-07T19:41:42.429Z,35.61
2023-05-07T19:43:14.835Z,35.73
2023-05-07T19:44:46.675Z,35.74
2023-05-07T19:46:18.945Z,35.64
2023-05-07T19:47:51.660Z,35.73
2023-05-07T19:49:23.631Z,35.92
2023-05-07T19:50:55.519Z,35.80
2023-05-07T19:52:27.455Z,35.90
2023-05-07T19:54:00.103Z,35.90